createdAt,value
2023-02-22T00:01:42.014Z,591.83
2023-02-22T00:04:12.194Z,414.80
2023-02-22T00:06:46.763Z,239.23
2023-02-22T00:09:23.753Z,439.97
2023-02-22T00:11:58.802Z,537.90
2023-02-22T00:14:28.920Z,557.13
2023-02-22T00:17:05.706Z,504.20
2023-02-22T00:19:34.170Z,538.47
2023-02-22T00:22:09.803Z,445.27
2023-02-22T00:24:38.196Z,385.20
2023-02-22T00:27:12.806Z,493.70
2023-02-22T00:29:46.282Z,632.57
2023-02-22T00:32:22.942Z,391.67
2023-02-22T00:34:54.692Z,555.67
2023-02-22T00:37:29.990Z,616.27
2023-02-22T00:39:58.461Z,210.83
2023-02-22T00:42:33.811Z,252.97
2023-02-22T00:45:03.598Z,467.43
2023-02-22T00:47:39.784Z,340.90
2023-02-22T00:50:10.462Z,374.13
2023-02-22T00:52:45.781Z,244.17
2023-02-22T00:55:20.412Z,193.73
2023-02-22T00:57:55.115Z,318.10
2023-02-22T01:00:26.472Z,381.47
2023-02-22T01:03:03.824Z,352.50
2023-02-22T01:05:33.321Z,297.33
2023-02-22T01:08:09.822Z,353.37
2023-02-22T01:10:46.703Z,284.83
2023-02-22T01:13:22.077Z,215.20
2023-02-22T01:15:50.517Z,107.20
2023-02-22T01:18:28.883Z,299.63
2023-02-22T01:20:57.261Z,398.33
2023-02-22T01:23:32.137Z,271.13
2023-02-22T01:26:00.765Z,209.40
2023-02-22T01:28:35.873Z,128.97
2023-02-22T01:31:04.956Z,204.93
2023-02-22T01:33:41.785Z,167.07
2023-02-22T01:36:11.794Z,112.43
2023-02-22T01:38:47.156Z,240.47
2023-02-22T01:41:25.141Z,198.47
2023-02-22T01:43:53.704Z,259.00
2023-02-22T01:46:30.917Z,256.30
2023-02-22T01:49:03.569Z,149.23
2023-02-22T01:51:45.902Z,234.93
2023-02-22T01:54:18.853Z,156.90
2023-02-22T01:56:59.030Z,117.47
2023-02-22T01:59:29.005Z,188.40
2023-02-22T02:02:06.228Z,140.47
2023-02-22T02:04:55.843Z,156.17
2023-02-22T02:07:32.840Z,184.33
2023-02-22T02:10:03.295Z,72.77
2023-02-22T02:12:43.158Z,177.73
2023-02-22T02:15:26.374Z,192.30
2023-02-22T02:18:04.990Z,105.00
2023-02-22T02:20:42.129Z,198.87
2023-02-22T02:23:47.916Z,94.27
2023-02-22T02:26:51.742Z,189.00
2023-02-22T02:30:18.205Z,208.93
2023-02-22T02:33:08.160Z,157.70
2023-02-22T02:35:56.184Z,160.90
2023-02-22T02:38:33.502Z,109.27
2023-02-22T02:41:13.889Z,192.10
2023-02-22T02:43:47.608Z,141.00
2023-02-22T02:46:27.882Z,185.13
2023-02-22T02:49:01.240Z,171.23
2023-02-22T02:51:40.761Z,146.57
2023-02-22T02:54:11.039Z,210.60
2023-02-22T02:56:45.893Z,186.17
2023-02-22T02:59:29.838Z,251.67
2023-02-22T03:02:36.914Z,169.23
2023-02-22T03:05:35.988Z,130.60
2023-02-22T03:08:11.209Z,381.43
2023-02-22T03:10:57.251Z,235.67
2023-02-22T03:13:43.081Z,192.97
2023-02-22T03:16:28.613Z,167.40
2023-02-22T03:19:06.690Z,210.43
2023-02-22T03:21:52.992Z,154.60
2023-02-22T03:24:25.758Z,157.17
2023-02-22T03:27:07.206Z,266.87
2023-02-22T03:29:39.543Z,163.90
2023-02-22T03:32:21.107Z,217.20
2023-02-22T03:34:56.933Z,269.73
2023-02-22T03:37:37.186Z,199.80
2023-02-22T03:40:14.005Z,137.73
2023-02-22T03:42:52.947Z,202.10
2023-02-22T03:45:26.255Z,236.87
2023-02-22T03:48:11.244Z,223.00
2023-02-22T03:50:40.578Z,253.63
2023-02-22T03:53:18.323Z,264.03
2023-02-22T03:55:49.437Z,242.13
2023-02-22T03:58:23.904Z,308.87
2023-02-22T04:00:53.382Z,194.37
2023-02-22T04:03:29.321Z,171.27
2023-02-22T04:06:04.391Z,278.33
2023-02-22T04:08:43.298Z,193.30
2023-02-22T04:11:11.806Z,158.37
2023-02-22T04:13:47.294Z,116.80
2023-02-22T04:16:16.024Z,181.23
2023-02-22T04:18:51.032Z,143.87
2023-02-22T04:21:19.642Z,135.53
2023-02-22T04:23:58.032Z,234.67
2023-02-22T04:26:26.376Z,204.37
2023-02-22T04:29:02.069Z,251.60
2023-02-22T04:31:30.765Z,202.07
2023-02-22T04:34:06.980Z,246.63
2023-02-22T04:36:35.887Z,121.17
2023-02-22T04:39:13.050Z,112.80
2023-02-22T04:41:41.995Z,180.53
2023-02-22T04:44:17.348Z,125.03
2023-02-22T04:46:47.117Z,123.87
2023-02-22T04:49:21.986Z,132.03
2023-02-22T04:51:50.787Z,127.03
2023-02-22T04:54:27.062Z,105.40
2023-02-22T04:56:58.096Z,91.73
2023-02-22T04:59:33.021Z,128.87
2023-02-22T05:02:02.953Z,127.73
2023-02-22T05:04:47.319Z,116.13
2023-02-22T05:07:16.109Z,74.20
2023-02-22T05:09:53.300Z,70.73
2023-02-22T05:12:21.755Z,94.63
2023-02-22T05:14:57.106Z,72.20
2023-02-22T05:17:26.133Z,46.83
2023-02-22T05:20:01.327Z,42.50
2023-02-22T05:22:29.931Z,46.97
2023-02-22T05:25:08.290Z,45.57
2023-02-22T05:27:36.764Z,33.67
2023-02-22T05:30:12.210Z,36.30
2023-02-22T05:32:40.685Z,31.40
2023-02-22T05:35:16.081Z,25.10
2023-02-22T05:37:46.254Z,39.83
2023-02-22T05:40:27.082Z,34.43
2023-02-22T05:42:57.653Z,27.73
2023-02-22T05:45:35.339Z,20.73
2023-02-22T05:48:04.563Z,20.30
2023-02-22T05:50:40.080Z,21.03
2023-02-22T05:53:08.705Z,23.17
2023-02-22T05:55:46.574Z,18.67
2023-02-22T05:58:15.227Z,18.63
2023-02-22T06:00:50.325Z,14.57
2023-02-22T06:03:20.460Z,12.57
2023-02-22T06:06:02.104Z,14.47
2023-02-22T06:08:30.672Z,11.60
2023-02-22T06:11:07.397Z,12.43
2023-02-22T06:13:35.854Z,11.93
2023-02-22T06:16:11.726Z,11.97
2023-02-22T06:18:40.552Z,11.67
2023-02-22T06:21:17.342Z,12.67
2023-02-22T06:23:47.255Z,12.70
2023-02-22T06:26:26.264Z,11.57
2023-02-22T06:28:54.860Z,12.23
2023-02-22T06:31:30.143Z,12.87
2023-02-22T06:34:01.246Z,12.57
2023-02-22T06:36:36.357Z,15.63
2023-02-22T06:39:05.326Z,13.30
2023-02-22T06:41:45.114Z,15.00
2023-02-22T06:44:15.506Z,13.67
2023-02-22T06:46:58.385Z,12.83
2023-02-22T06:49:28.520Z,12.23
2023-02-22T06:52:04.041Z,11.60
2023-02-22T06:54:32.689Z,12.07
2023-02-22T06:57:10.200Z,11.70
2023-02-22T06:59:38.796Z,12.23
2023-02-22T07:02:16.625Z,11.40
2023-02-22T07:05:04.439Z,12.30
2023-02-22T07:07:39.152Z,11.93
2023-02-22T07:10:11.660Z,12.57
2023-02-22T07:12:48.388Z,11.53
2023-02-22T07:15:18.152Z,11.57
2023-02-22T07:17:53.135Z,11.60
2023-02-22T07:20:24.561Z,11.80
2023-02-22T07:23:00.903Z,12.73
2023-02-22T07:25:29.358Z,12.50
2023-02-22T07:28:06.116Z,12.00
2023-02-22T07:30:35.397Z,11.63
2023-02-22T07:33:12.252Z,11.47
2023-02-22T07:35:46.577Z,11.83
2023-02-22T07:38:24.189Z,12.27
2023-02-22T07:40:52.549Z,11.83
2023-02-22T07:43:31.488Z,11.87
2023-02-22T07:46:09.478Z,11.50
2023-02-22T07:48:38.047Z,13.20
2023-02-22T07:51:14.712Z,13.30
2023-02-22T07:53:43.326Z,13.23
2023-02-22T07:56:18.471Z,11.03
2023-02-22T07:58:48.417Z,10.70
2023-02-22T08:01:23.144Z,11.17
2023-02-22T08:04:11.472Z,11.10
2023-02-22T08:06:46.110Z,10.53
2023-02-22T08:09:15.197Z,10.77
2023-02-22T08:11:50.413Z,10.37
2023-02-22T08:14:20.251Z,10.23
2023-02-22T08:16:55.560Z,10.00
2023-02-22T08:19:24.664Z,10.00
2023-02-22T08:22:00.161Z,10.20
2023-02-22T08:24:28.795Z,10.27
2023-02-22T08:27:03.466Z,10.57
2023-02-22T08:29:33.855Z,9.90
2023-02-22T08:32:09.377Z,9.67
2023-02-22T08:34:37.749Z,9.57
2023-02-22T08:37:13.148Z,9.80
2023-02-22T08:39:41.911Z,10.20
2023-02-22T08:42:17.205Z,10.70
2023-02-22T08:44:47.667Z,9.40
2023-02-22T08:47:22.236Z,9.80
2023-02-22T08:49:50.866Z,9.90
2023-02-22T08:52:26.480Z,11.00
2023-02-22T08:54:55.862Z,12.13
2023-02-22T08:57:31.560Z,10.10
2023-02-22T09:00:01.473Z,10.23
2023-02-22T09:02:36.498Z,9.50
2023-02-22T09:05:24.510Z,10.90
2023-02-22T09:07:59.449Z,9.33
2023-02-22T09:10:31.229Z,9.57
2023-02-22T09:13:07.449Z,9.73
2023-02-22T09:15:37.621Z,11.40
2023-02-22T09:18:15.200Z,9.90
2023-02-22T09:20:43.748Z,9.50
2023-02-22T09:23:21.522Z,11.50
2023-02-22T09:25:50.832Z,10.13
2023-02-22T09:28:27.829Z,10.27
2023-02-22T09:30:59.093Z,10.97
2023-02-22T09:33:34.210Z,8.47
2023-02-22T09:36:03.404Z,9.57
2023-02-22T09:38:39.284Z,10.47
2023-02-22T09:41:15.974Z,10.37
2023-02-22T09:43:58.305Z,9.27
2023-02-22T09:46:35.454Z,9.00
2023-02-22T09:49:14.312Z,9.73
2023-02-22T09:51:49.530Z,8.07
2023-02-22T09:54:30.763Z,9.57
2023-02-22T09:57:04.092Z,8.30
2023-02-22T09:59:44.256Z,8.50
2023-02-22T10:02:25.231Z,9.30
2023-02-22T10:05:06.724Z,8.80
2023-02-22T10:07:48.527Z,9.03
2023-02-22T10:10:27.395Z,9.23
2023-02-22T10:13:06.143Z,10.30
2023-02-22T10:16:05.616Z,8.57
2023-02-22T10:19:10.302Z,8.80
2023-02-22T10:22:05.786Z,7.80
2023-02-22T10:24:53.363Z,9.57
2023-02-22T10:27:24.038Z,8.03
2023-02-22T10:30:15.545Z,8.20
2023-02-22T10:32:56.068Z,8.83
2023-02-22T10:35:35.282Z,8.43
2023-02-22T10:38:13.161Z,9.70
2023-02-22T10:40:48.427Z,11.80
2023-02-22T10:43:17.564Z,8.67
2023-02-22T10:45:52.354Z,9.60
2023-02-22T10:48:21.848Z,10.50
2023-02-22T10:51:00.311Z,9.03
2023-02-22T10:53:29.614Z,10.20
2023-02-22T10:56:20.392Z,11.70
2023-02-22T10:58:53.183Z,10.00
2023-02-22T11:01:31.399Z,9.77
2023-02-22T11:04:21.886Z,10.00
2023-02-22T11:07:26.642Z,10.30
2023-02-22T11:09:57.169Z,9.83
2023-02-22T11:12:39.381Z,10.77
2023-02-22T11:15:36.273Z,10.53
2023-02-22T11:18:11.323Z,11.33
2023-02-22T11:20:42.074Z,10.87
2023-02-22T11:23:19.296Z,10.07
2023-02-22T11:25:48.801Z,10.20
2023-02-22T11:28:37.644Z,9.90
2023-02-22T11:31:17.428Z,11.43
2023-02-22T11:34:02.653Z,9.60
2023-02-22T11:36:38.118Z,12.40
2023-02-22T11:39:29.474Z,10.17
2023-02-22T11:41:58.473Z,9.83
2023-02-22T11:44:37.392Z,12.77
2023-02-22T11:47:12.411Z,10.73
2023-02-22T11:49:52.633Z,11.27
2023-02-22T11:52:28.327Z,10.10
2023-02-22T11:58:21.609Z,10.30
2023-02-22T12:01:04.737Z,10.97
2023-02-22T12:04:17.277Z,11.10
2023-02-22T12:06:59.753Z,11.87
2023-02-22T12:09:37.699Z,12.03
2023-02-22T12:12:22.764Z,11.40
2023-02-22T12:15:02.135Z,11.10
2023-02-22T12:17:59.461Z,12.13
2023-02-22T12:20:33.285Z,11.53
2023-02-22T12:23:16.742Z,12.33
2023-02-22T12:25:57.899Z,11.73
2023-02-22T12:28:39.834Z,10.90
2023-02-22T12:31:24.488Z,11.60
2023-02-22T12:34:07.772Z,12.07
2023-02-22T12:36:41.167Z,12.20
2023-02-22T12:39:52.127Z,12.20
2023-02-22T12:42:29.329Z,11.87
2023-02-22T12:45:11.407Z,12.07
2023-02-22T12:47:48.599Z,12.37
2023-02-22T12:50:29.606Z,12.53
2023-02-22T12:53:02.850Z,13.30
2023-02-22T12:55:43.916Z,12.97
2023-02-22T12:58:25.891Z,14.07
2023-02-22T13:01:07.863Z,17.77
2023-02-22T13:03:40.299Z,14.20
2023-02-22T13:06:48.801Z,16.10
2023-02-22T13:09:56.693Z,16.17
2023-02-22T13:12:32.685Z,15.07
2023-02-22T13:15:17.747Z,15.30
2023-02-22T13:17:53.618Z,14.67
2023-02-22T13:20:34.647Z,15.20
2023-02-22T13:23:15.720Z,16.97
2023-02-22T13:25:56.886Z,15.90
2023-02-22T13:28:32.637Z,16.17
2023-02-22T13:31:34.993Z,16.37
2023-02-22T13:34:34.910Z,15.80
2023-02-22T13:37:28.886Z,19.57
2023-02-22T13:40:37.687Z,21.40
2023-02-22T13:43:36.640Z,15.77
2023-02-22T13:46:30.369Z,15.80
2023-02-22T13:49:36.734Z,14.90
2023-02-22T13:52:12.214Z,17.17
2023-02-22T13:54:51.731Z,16.13
2023-02-22T13:57:42.866Z,16.60
2023-02-22T14:00:30.970Z,19.33
2023-02-22T14:03:08.442Z,17.37
2023-02-22T14:05:58.691Z,18.27
2023-02-22T14:08:47.403Z,19.30
2023-02-22T14:11:50.758Z,20.40
2023-02-22T14:14:19.421Z,19.63
2023-02-22T14:17:37.781Z,19.73
2023-02-22T14:20:21.034Z,21.50
2023-02-22T14:22:58.747Z,20.20
2023-02-22T14:25:46.474Z,20.80
2023-02-22T14:28:50.026Z,19.80
2023-02-22T14:31:35.083Z,20.63
2023-02-22T14:34:16.736Z,21.87
2023-02-22T14:36:52.459Z,21.50
2023-02-22T14:39:38.750Z,21.17
2023-02-22T14:42:14.086Z,22.97
2023-02-22T14:44:56.821Z,20.47
2023-02-22T14:47:29.920Z,21.80
2023-02-22T14:50:12.811Z,21.43
2023-02-22T14:52:44.000Z,20.77
2023-02-22T14:55:25.959Z,22.87
2023-02-22T14:58:09.886Z,23.93
2023-02-22T15:00:48.890Z,23.17
2023-02-22T15:03:32.739Z,22.93
2023-02-22T15:06:14.077Z,21.63
2023-02-22T15:08:48.952Z,24.97
2023-02-22T15:11:32.765Z,23.17
2023-02-22T15:14:03.538Z,23.10
2023-02-22T15:16:41.771Z,23.67
2023-02-22T15:19:12.428Z,23.27
2023-02-22T15:21:53.828Z,22.60
2023-02-22T15:24:25.837Z,24.13
2023-02-22T15:27:04.439Z,24.90
2023-02-22T15:29:38.168Z,23.80
2023-02-22T15:32:26.832Z,23.90
2023-02-22T15:34:56.597Z,23.97
2023-02-22T15:37:35.773Z,25.60
2023-02-22T15:40:14.485Z,25.87
2023-02-22T15:42:54.807Z,25.20
2023-02-22T15:45:28.204Z,24.67
2023-02-22T15:48:04.887Z,26.33
2023-02-22T15:50:35.021Z,24.23
2023-02-22T15:53:11.963Z,25.27
2023-02-22T15:55:42.269Z,25.57
2023-02-22T15:58:35.842Z,23.90
2023-02-22T16:01:07.798Z,25.77
2023-02-22T16:03:50.846Z,25.10
2023-02-22T16:06:30.393Z,26.23
2023-02-22T16:09:07.991Z,25.40
2023-02-22T16:11:40.704Z,25.87
2023-02-22T16:14:33.032Z,26.80
2023-02-22T16:17:37.183Z,25.67
2023-02-22T16:20:34.636Z,25.80
2023-02-22T16:23:30.993Z,23.90
2023-02-22T16:26:22.413Z,23.73
2023-02-22T16:29:00.157Z,24.67
2023-02-22T16:31:32.007Z,24.03
2023-02-22T16:34:09.059Z,24.63
2023-02-22T16:36:43.093Z,25.50
2023-02-22T16:39:25.858Z,25.80
2023-02-22T16:41:55.897Z,25.80
2023-02-22T16:44:31.849Z,29.17
2023-02-22T16:47:01.641Z,28.93
2023-02-22T16:49:37.851Z,28.80
2023-02-22T16:52:08.883Z,27.70
2023-02-22T16:54:48.918Z,29.83
2023-02-22T16:57:38.828Z,31.83
2023-02-22T17:00:19.905Z,29.07
2023-02-22T17:02:48.341Z,31.30
2023-02-22T17:05:25.119Z,30.13
2023-02-22T17:07:53.422Z,29.67
2023-02-22T17:10:28.873Z,30.93
2023-02-22T17:12:57.715Z,29.90
2023-02-22T17:15:34.950Z,30.17
2023-02-22T17:18:05.738Z,30.80
2023-02-22T17:20:42.043Z,31.90
2023-02-22T17:23:11.752Z,34.73
2023-02-22T17:25:48.917Z,32.87
2023-02-22T17:28:17.231Z,34.20
2023-02-22T17:30:55.114Z,33.10
2023-02-22T17:33:26.897Z,32.10
2023-02-22T17:36:05.969Z,35.13
2023-02-22T17:38:34.829Z,37.23
2023-02-22T17:41:09.896Z,37.60
2023-02-22T17:43:38.187Z,37.00
2023-02-22T17:46:16.233Z,35.50
2023-02-22T17:48:44.771Z,35.57
2023-02-22T17:51:21.055Z,35.73
2023-02-22T17:53:49.451Z,36.13
2023-02-22T17:56:25.908Z,34.43
2023-02-22T17:59:01.051Z,33.30
2023-02-22T18:01:38.065Z,36.67
2023-02-22T18:04:07.171Z,34.93
2023-02-22T18:06:45.001Z,34.37
2023-02-22T18:09:18.048Z,32.40
2023-02-22T18:11:52.973Z,33.43
2023-02-22T18:14:21.189Z,30.57
2023-02-22T18:16:55.952Z,30.43
2023-02-22T18:19:24.374Z,30.87
2023-02-22T18:22:00.900Z,32.87
2023-02-22T18:24:29.198Z,31.57
2023-02-22T18:27:04.116Z,31.20
2023-02-22T18:29:32.573Z,29.03
2023-02-22T18:32:08.009Z,33.60
2023-02-22T18:34:36.535Z,32.93
2023-02-22T18:37:13.385Z,30.00
2023-02-22T18:39:43.092Z,29.80
2023-02-22T18:42:20.936Z,31.70
2023-02-22T18:44:49.287Z,30.57
2023-02-22T18:47:23.923Z,30.57
2023-02-22T18:49:52.321Z,32.60
2023-02-22T18:52:28.965Z,29.23
2023-02-22T18:54:57.198Z,28.53
2023-02-22T18:57:31.989Z,30.80
2023-02-22T19:00:07.742Z,31.87
2023-02-22T19:02:43.051Z,29.70
2023-02-22T19:05:12.130Z,30.87
2023-02-22T19:07:48.112Z,29.77
2023-02-22T19:10:16.450Z,26.83
2023-02-22T19:12:51.141Z,30.63
2023-02-22T19:15:19.552Z,30.03
2023-02-22T19:17:53.969Z,30.50
2023-02-22T19:20:22.301Z,30.43
2023-02-22T19:22:59.989Z,31.43
2023-02-22T19:25:28.167Z,31.33
2023-02-22T19:28:03.953Z,31.83
2023-02-22T19:30:33.148Z,32.43
2023-02-22T19:33:10.982Z,35.17
2023-02-22T19:35:48.243Z,33.80
2023-02-22T19:38:24.394Z,31.97
2023-02-22T19:40:52.654Z,41.23
2023-02-22T19:43:27.033Z,35.50
2023-02-22T19:45:55.673Z,33.23
2023-02-22T19:48:29.987Z,48.33
2023-02-22T19:51:09.152Z,55.80
2023-02-22T19:53:40.252Z,29.87
2023-02-22T19:56:17.978Z,34.03
2023-02-22T19:58:54.253Z,43.47
2023-02-22T20:01:31.244Z,34.77
2023-02-22T20:04:01.842Z,37.70
2023-02-22T20:06:41.028Z,32.90
2023-02-22T20:09:13.432Z,34.43
2023-02-22T20:11:48.017Z,36.53
2023-02-22T20:14:21.384Z,37.23
2023-02-22T20:16:56.029Z,36.17
2023-02-22T20:19:26.863Z,39.27
2023-02-22T20:22:03.022Z,36.30
2023-02-22T20:24:33.112Z,37.47
2023-02-22T20:27:08.041Z,37.77
2023-02-22T20:29:36.484Z,38.37
2023-02-22T20:32:12.585Z,40.67
2023-02-22T20:34:40.976Z,36.87
2023-02-22T20:37:16.221Z,38.70
2023-02-22T20:39:46.172Z,42.27
2023-02-22T20:42:22.059Z,42.93
2023-02-22T20:44:51.391Z,41.10
2023-02-22T20:47:26.112Z,42.50
2023-02-22T20:49:54.359Z,42.23
2023-02-22T20:52:29.108Z,39.90
2023-02-22T20:54:59.009Z,38.70
2023-02-22T20:57:40.544Z,40.10
2023-02-22T21:00:18.228Z,40.47
2023-02-22T21:02:53.374Z,40.80
2023-02-22T21:05:21.810Z,40.83
2023-02-22T21:07:56.055Z,36.73
2023-02-22T21:10:25.766Z,42.23
2023-02-22T21:13:03.720Z,42.47
2023-02-22T21:15:35.155Z,50.90
2023-02-22T21:18:10.077Z,45.13
2023-02-22T21:20:40.896Z,42.60
2023-02-22T21:23:16.088Z,39.80
2023-02-22T21:25:53.098Z,37.20
2023-02-22T21:28:42.519Z,40.73
2023-02-22T21:31:17.103Z,42.10
2023-02-22T21:33:52.127Z,39.43
2023-02-22T21:36:21.104Z,41.57
2023-02-22T21:39:00.179Z,38.57
2023-02-22T21:41:34.049Z,40.53
2023-02-22T21:44:09.090Z,38.57
2023-02-22T21:46:37.386Z,38.40
2023-02-22T21:49:12.111Z,39.63
2023-02-22T21:51:40.571Z,39.70
2023-02-22T21:54:19.386Z,40.03
2023-02-22T21:56:49.210Z,38.90
2023-02-22T21:59:33.174Z,41.90
2023-02-22T22:02:01.560Z,44.23
2023-02-22T22:04:37.127Z,44.93
2023-02-22T22:07:05.690Z,43.23
2023-02-22T22:09:44.533Z,46.83
2023-02-22T22:12:14.149Z,45.83
2023-02-22T22:14:49.355Z,47.63
2023-02-22T22:17:17.978Z,50.43
2023-02-22T22:19:55.299Z,48.10
2023-02-22T22:22:23.823Z,49.47
2023-02-22T22:25:00.211Z,53.00
2023-02-22T22:27:29.925Z,52.77
2023-02-22T22:30:08.123Z,51.77
2023-02-22T22:32:36.439Z,55.87
2023-02-22T22:35:11.465Z,57.60
2023-02-22T22:37:40.084Z,56.67
2023-02-22T22:40:22.138Z,56.63
2023-02-22T22:42:51.868Z,52.53
2023-02-22T22:45:27.369Z,56.07
2023-02-22T22:47:57.221Z,57.47
2023-02-22T22:50:33.302Z,59.97
2023-02-22T22:53:03.063Z,58.47
2023-02-22T22:55:38.168Z,56.50
2023-02-22T22:58:29.158Z,56.60
2023-02-22T23:01:07.984Z,56.13
2023-02-22T23:03:37.463Z,54.83
2023-02-22T23:06:13.244Z,55.33
2023-02-22T23:08:51.190Z,62.40
2023-02-22T23:11:20.059Z,59.40
2023-02-22T23:13:50.503Z,67.20
2023-02-22T23:16:26.567Z,61.23
2023-02-22T23:18:54.898Z,64.83
2023-02-22T23:21:31.174Z,62.53
2023-02-22T23:24:06.469Z,54.60
2023-02-22T23:26:35.436Z,58.73
2023-02-22T23:29:05.895Z,57.03
2023-02-22T23:31:46.394Z,66.07
2023-02-22T23:34:15.711Z,55.20
2023-02-22T23:36:55.398Z,53.20
2023-02-22T23:39:32.413Z,50.53
2023-02-22T23:42:00.790Z,58.03
2023-02-22T23:44:31.126Z,53.07
2023-02-22T23:47:06.855Z,56.90
2023-02-22T23:49:38.592Z,47.23
2023-02-22T23:52:15.428Z,49.80
2023-02-22T23:54:47.001Z,50.63
2023-02-22T23:57:30.253Z,46.00
